Aviation Digital Data Service (ADDS)

Output produced by METARs form (2039 UTC 20 August 2019)
found at http://www.aviationweather.gov/metar/data/
 
METAR text: UTAA 202000Z 22004KT 9999 NSC 25/07 Q1014 R88/70D NOSIG
Conditions at: UTAA (ASHGABAT , TM) observed 2000 UTC 20 August 2019
Temperature: 25.0°C (77°F)
Dewpoint: 7.0°C (45°F) [RH = 32%]
Pressure (altimeter): 29.94 inches Hg (1014.0 mb)
Winds: from the SW (220 degrees) at 5 MPH (4 knots; 2.1 m/s)
Visibility: 6 or more miles (10+ km)
Ceiling: at least 12,000 feet AGL
Clouds: sky clear below 12,000 feet AGL
Weather: no significant weather observed at this time

METAR text: UTAA 201900Z 23004KT 190V280 9000 NSC 27/06 Q1015 R88/70D NOSIG
Conditions at: UTAA (ASHGABAT , TM) observed 1900 UTC 20 August 2019
Temperature: 27.0°C (81°F)
Dewpoint: 6.0°C (43°F) [RH = 26%]
Pressure (altimeter): 29.97 inches Hg (1015.0 mb)
Winds: from the SW (230 degrees) at 5 MPH (4 knots; 2.1 m/s)
Visibility: 6 miles ( 9 km)
Ceiling: at least 12,000 feet AGL
Clouds: sky clear below 12,000 feet AGL
Weather: no significant weather observed at this time

METAR text: UTAA 201800Z 13006KT 9999 NSC 29/06 Q1015 R88/70D NOSIG
Conditions at: UTAA (ASHGABAT , TM) observed 1800 UTC 20 August 2019
Temperature: 29.0°C (84°F)
Dewpoint: 6.0°C (43°F) [RH = 23%]
Pressure (altimeter): 29.97 inches Hg (1015.0 mb)
Winds: from the SE (130 degrees) at 7 MPH (6 knots; 3.1 m/s)
Visibility: 6 or more miles (10+ km)
Ceiling: at least 12,000 feet AGL
Clouds: sky clear below 12,000 feet AGL
Weather: no significant weather observed at this time

METAR text: UTAA 201700Z VRB02KT 7000 NSC 29/06 Q1015 R88/70D NOSIG
Conditions at: UTAA (ASHGABAT , TM) observed 1700 UTC 20 August 2019
Temperature: 29.0°C (84°F)
Dewpoint: 6.0°C (43°F) [RH = 23%]
Pressure (altimeter): 29.97 inches Hg (1015.0 mb)
Winds: variable direction winds at 2 MPH (2 knots; 1.0 m/s)
Visibility: 4 miles ( 7 km)
Ceiling: at least 12,000 feet AGL
Clouds: sky clear below 12,000 feet AGL
Weather: no significant weather observed at this time

METAR text: UTAA 201600Z VRB02KT 6000 NSC 31/06 Q1014 R88/70D NOSIG
Conditions at: UTAA (ASHGABAT , TM) observed 1600 UTC 20 August 2019
Temperature: 31.0°C (88°F)
Dewpoint: 6.0°C (43°F) [RH = 21%]
Pressure (altimeter): 29.94 inches Hg (1014.0 mb)
Winds: variable direction winds at 2 MPH (2 knots; 1.0 m/s)
Visibility: 4 miles ( 6 km)
Ceiling: at least 12,000 feet AGL
Clouds: sky clear below 12,000 feet AGL
Weather: no significant weather observed at this time

METAR text: UTAA 201500Z 07002KT 9999 NSC 33/05 Q1014 R88/70D NOSIG
Conditions at: UTAA (ASHGABAT , TM) observed 1500 UTC 20 August 2019
Temperature: 33.0°C (91°F)
Dewpoint: 5.0°C (41°F) [RH = 17%]
Pressure (altimeter): 29.94 inches Hg (1014.0 mb)
Winds: from the ENE (70 degrees) at 2 MPH (2 knots; 1.0 m/s)
Visibility: 6 or more miles (10+ km)
Ceiling: at least 12,000 feet AGL
Clouds: sky clear below 12,000 feet AGL
Weather: no significant weather observed at this time

METAR text: UTAA 201400Z 08004KT 9999 NSC 36/03 Q1014 R88/70D NOSIG
Conditions at: UTAA (ASHGABAT , TM) observed 1400 UTC 20 August 2019
Temperature: 36.0°C (97°F)
Dewpoint: 3.0°C (37°F) [RH = 13%]
Pressure (altimeter): 29.94 inches Hg (1014.0 mb)
Winds: from the E (80 degrees) at 5 MPH (4 knots; 2.1 m/s)
Visibility: 6 or more miles (10+ km)
Ceiling: at least 12,000 feet AGL
Clouds: sky clear below 12,000 feet AGL
Weather: no significant weather observed at this time

METAR text: UTAA 201300Z 03006KT 360V060 9999 NSC 36/04 Q1014 R88/70D NOSIG
Conditions at: UTAA (ASHGABAT , TM) observed 1300 UTC 20 August 2019
Temperature: 36.0°C (97°F)
Dewpoint: 4.0°C (39°F) [RH = 14%]
Pressure (altimeter): 29.94 inches Hg (1014.0 mb)
Winds: from the NNE (30 degrees) at 7 MPH (6 knots; 3.1 m/s)
Visibility: 6 or more miles (10+ km)
Ceiling: at least 12,000 feet AGL
Clouds: sky clear below 12,000 feet AGL
Weather: no significant weather observed at this time

METAR text: UTAA 201200Z 07008KT 010V110 9999 NSC 36/04 Q1014 R88/70D NOSIG
Conditions at: UTAA (ASHGABAT , TM) observed 1200 UTC 20 August 2019
Temperature: 36.0°C (97°F)
Dewpoint: 4.0°C (39°F) [RH = 14%]
Pressure (altimeter): 29.94 inches Hg (1014.0 mb)
Winds: from the ENE (70 degrees) at 9 MPH (8 knots; 4.1 m/s)
Visibility: 6 or more miles (10+ km)
Ceiling: at least 12,000 feet AGL
Clouds: sky clear below 12,000 feet AGL
Weather: no significant weather observed at this time

METAR text: UTAA 201100Z 04006KT 9999 NSC 37/05 Q1014 R88/70D NOSIG
Conditions at: UTAA (ASHGABAT , TM) observed 1100 UTC 20 August 2019
Temperature: 37.0°C (99°F)
Dewpoint: 5.0°C (41°F) [RH = 14%]
Pressure (altimeter): 29.94 inches Hg (1014.0 mb)
Winds: from the NE (40 degrees) at 7 MPH (6 knots; 3.1 m/s)
Visibility: 6 or more miles (10+ km)
Ceiling: at least 12,000 feet AGL
Clouds: sky clear below 12,000 feet AGL
Weather: no significant weather observed at this time

METAR text: UTAA 201000Z 03006KT 9999 NSC 36/04 Q1014 R88/70D NOSIG
Conditions at: UTAA (ASHGABAT , TM) observed 1000 UTC 20 August 2019
Temperature: 36.0°C (97°F)
Dewpoint: 4.0°C (39°F) [RH = 14%]
Pressure (altimeter): 29.94 inches Hg (1014.0 mb)
Winds: from the NNE (30 degrees) at 7 MPH (6 knots; 3.1 m/s)
Visibility: 6 or more miles (10+ km)
Ceiling: at least 12,000 feet AGL
Clouds: sky clear below 12,000 feet AGL
Weather: no significant weather observed at this time

METAR text: UTAA 200900Z 02006KT 330V140 9999 NSC 36/06 Q1015 R88/70D NOSIG
Conditions at: UTAA (ASHGABAT , TM) observed 0900 UTC 20 August 2019
Temperature: 36.0°C (97°F)
Dewpoint: 6.0°C (43°F) [RH = 16%]
Pressure (altimeter): 29.97 inches Hg (1015.0 mb)
Winds: from the NNE (20 degrees) at 7 MPH (6 knots; 3.1 m/s)
Visibility: 6 or more miles (10+ km)
Ceiling: at least 12,000 feet AGL
Clouds: sky clear below 12,000 feet AGL
Weather: no significant weather observed at this time

METAR text: UTAA 200800Z 27004KT 9999 NSC 36/05 Q1015 R88/70D NOSIG
Conditions at: UTAA (ASHGABAT , TM) observed 0800 UTC 20 August 2019
Temperature: 36.0°C (97°F)
Dewpoint: 5.0°C (41°F) [RH = 15%]
Pressure (altimeter): 29.97 inches Hg (1015.0 mb)
Winds: from the W (270 degrees) at 5 MPH (4 knots; 2.1 m/s)
Visibility: 6 or more miles (10+ km)
Ceiling: at least 12,000 feet AGL
Clouds: sky clear below 12,000 feet AGL
Weather: no significant weather observed at this time

METAR text: UTAA 200700Z 07004KT 9999 NSC 35/05 Q1015 R88/70D NOSIG
Conditions at: UTAA (ASHGABAT , TM) observed 0700 UTC 20 August 2019
Temperature: 35.0°C (95°F)
Dewpoint: 5.0°C (41°F) [RH = 16%]
Pressure (altimeter): 29.97 inches Hg (1015.0 mb)
Winds: from the ENE (70 degrees) at 5 MPH (4 knots; 2.1 m/s)
Visibility: 6 or more miles (10+ km)
Ceiling: at least 12,000 feet AGL
Clouds: sky clear below 12,000 feet AGL
Weather: no significant weather observed at this time

METAR text: UTAA 200600Z 25004KT 190V350 9999 NSC 33/06 Q1016 R88/70D NOSIG
Conditions at: UTAA (ASHGABAT , TM) observed 0600 UTC 20 August 2019
Temperature: 33.0°C (91°F)
Dewpoint: 6.0°C (43°F) [RH = 19%]
Pressure (altimeter): 30.00 inches Hg (1016.0 mb)
Winds: from the WSW (250 degrees) at 5 MPH (4 knots; 2.1 m/s)
Visibility: 6 or more miles (10+ km)
Ceiling: at least 12,000 feet AGL
Clouds: sky clear below 12,000 feet AGL
Weather: no significant weather observed at this time

METAR text: UTAA 200500Z 26006KT 230V290 9999 NSC 31/06 Q1016 R88/70D NOSIG
Conditions at: UTAA (ASHGABAT , TM) observed 0500 UTC 20 August 2019
Temperature: 31.0°C (88°F)
Dewpoint: 6.0°C (43°F) [RH = 21%]
Pressure (altimeter): 30.00 inches Hg (1016.0 mb)
Winds: from the W (260 degrees) at 7 MPH (6 knots; 3.1 m/s)
Visibility: 6 or more miles (10+ km)
Ceiling: at least 12,000 feet AGL
Clouds: sky clear below 12,000 feet AGL
Weather: no significant weather observed at this time

METAR text: UTAA 200400Z 31004KT 280V340 9999 NSC 28/07 Q1016 R88/70D NOSIG
Conditions at: UTAA (ASHGABAT , TM) observed 0400 UTC 20 August 2019
Temperature: 28.0°C (82°F)
Dewpoint: 7.0°C (45°F) [RH = 27%]
Pressure (altimeter): 30.00 inches Hg (1016.0 mb)
Winds: from the NW (310 degrees) at 5 MPH (4 knots; 2.1 m/s)
Visibility: 6 or more miles (10+ km)
Ceiling: at least 12,000 feet AGL
Clouds: sky clear below 12,000 feet AGL
Weather: no significant weather observed at this time

METAR text: UTAA 200300Z 28004KT 9999 NSC 26/07 Q1015 R88/70D NOSIG
Conditions at: UTAA (ASHGABAT , TM) observed 0300 UTC 20 August 2019
Temperature: 26.0°C (79°F)
Dewpoint: 7.0°C (45°F) [RH = 30%]
Pressure (altimeter): 29.97 inches Hg (1015.0 mb)
Winds: from the W (280 degrees) at 5 MPH (4 knots; 2.1 m/s)
Visibility: 6 or more miles (10+ km)
Ceiling: at least 12,000 feet AGL
Clouds: sky clear below 12,000 feet AGL
Weather: no significant weather observed at this time

METAR text: UTAA 200200Z 24002KT 9999 NSC 21/06 Q1015 R88/70D NOSIG
Conditions at: UTAA (ASHGABAT , TM) observed 0200 UTC 20 August 2019
Temperature: 21.0°C (70°F)
Dewpoint: 6.0°C (43°F) [RH = 38%]
Pressure (altimeter): 29.97 inches Hg (1015.0 mb)
Winds: from the WSW (240 degrees) at 2 MPH (2 knots; 1.0 m/s)
Visibility: 6 or more miles (10+ km)
Ceiling: at least 12,000 feet AGL
Clouds: sky clear below 12,000 feet AGL
Weather: no significant weather observed at this time

METAR text: UTAA 200100Z 23004KT 9000 NSC 21/06 Q1014 R88/70D NOSIG
Conditions at: UTAA (ASHGABAT , TM) observed 0100 UTC 20 August 2019
Temperature: 21.0°C (70°F)
Dewpoint: 6.0°C (43°F) [RH = 38%]
Pressure (altimeter): 29.94 inches Hg (1014.0 mb)
Winds: from the SW (230 degrees) at 5 MPH (4 knots; 2.1 m/s)
Visibility: 6 miles ( 9 km)
Ceiling: at least 12,000 feet AGL
Clouds: sky clear below 12,000 feet AGL
Weather: no significant weather observed at this time

METAR text: UTAA 200000Z 00000MPS 9999 NSC 22/06 Q1014 R88/70D NOSIG
Conditions at: UTAA (ASHGABAT , TM) observed 0000 UTC 20 August 2019
Temperature: 22.0°C (72°F)
Dewpoint: 6.0°C (43°F) [RH = 35%]
Pressure (altimeter): 29.94 inches Hg (1014.0 mb)
Winds: calm
Visibility: 6 or more miles (10+ km)
Ceiling: at least 12,000 feet AGL
Clouds: sky clear below 12,000 feet AGL
Weather: no significant weather observed at this time

METAR text: UTAA 192300Z 22004KT 9999 NSC 22/07 Q1014 R88/70D NOSIG
Conditions at: UTAA (ASHGABAT , TM) observed 2300 UTC 19 August 2019
Temperature: 22.0°C (72°F)
Dewpoint: 7.0°C (45°F) [RH = 38%]
Pressure (altimeter): 29.94 inches Hg (1014.0 mb)
Winds: from the SW (220 degrees) at 5 MPH (4 knots; 2.1 m/s)
Visibility: 6 or more miles (10+ km)
Ceiling: at least 12,000 feet AGL
Clouds: sky clear below 12,000 feet AGL
Weather: no significant weather observed at this time

METAR text: UTAA 192200Z 29004KT 250V310 9999 NSC 23/05 Q1014 R88/CLRD70 NOSIG
Conditions at: UTAA (ASHGABAT , TM) observed 2200 UTC 19 August 2019
Temperature: 23.0°C (73°F)
Dewpoint: 5.0°C (41°F) [RH = 31%]
Pressure (altimeter): 29.94 inches Hg (1014.0 mb)
Winds: from the WNW (290 degrees) at 5 MPH (4 knots; 2.1 m/s)
Visibility: 6 or more miles (10+ km)
Ceiling: at least 12,000 feet AGL
Clouds: sky clear below 12,000 feet AGL
Weather: no significant weather observed at this time

METAR text: UTAA 192100Z 21004KT 9999 NSC 25/06 Q1014 R88/70D NOSIG
Conditions at: UTAA (ASHGABAT , TM) observed 2100 UTC 19 August 2019
Temperature: 25.0°C (77°F)
Dewpoint: 6.0°C (43°F) [RH = 30%]
Pressure (altimeter): 29.94 inches Hg (1014.0 mb)
Winds: from the SSW (210 degrees) at 5 MPH (4 knots; 2.1 m/s)
Visibility: 6 or more miles (10+ km)
Ceiling: at least 12,000 feet AGL
Clouds: sky clear below 12,000 feet AGL
Weather: no significant weather observed at this time

METAR text: UTAA 192000Z 15004KT 9999 NSC 25/07 Q1014 R88/70D NOSIG
Conditions at: UTAA (ASHGABAT , TM) observed 2000 UTC 19 August 2019
Temperature: 25.0°C (77°F)
Dewpoint: 7.0°C (45°F) [RH = 32%]
Pressure (altimeter): 29.94 inches Hg (1014.0 mb)
Winds: from the SSE (150 degrees) at 5 MPH (4 knots; 2.1 m/s)
Visibility: 6 or more miles (10+ km)
Ceiling: at least 12,000 feet AGL
Clouds: sky clear below 12,000 feet AGL
Weather: no significant weather observed at this time

METAR text: UTAA 191900Z 02006KT 360V060 9999 NSC 25/12 Q1014 R88/70D NOSIG
Conditions at: UTAA (ASHGABAT , TM) observed 1900 UTC 19 August 2019
Temperature: 25.0°C (77°F)
Dewpoint: 12.0°C (54°F) [RH = 44%]
Pressure (altimeter): 29.94 inches Hg (1014.0 mb)
Winds: from the NNE (20 degrees) at 7 MPH (6 knots; 3.1 m/s)
Visibility: 6 or more miles (10+ km)
Ceiling: at least 12,000 feet AGL
Clouds: sky clear below 12,000 feet AGL
Weather: no significant weather observed at this time

METAR text: UTAA 191800Z VRB02KT 9999 NSC 29/03 Q1014 R88/70D NOSIG
Conditions at: UTAA (ASHGABAT , TM) observed 1800 UTC 19 August 2019
Temperature: 29.0°C (84°F)
Dewpoint: 3.0°C (37°F) [RH = 19%]
Pressure (altimeter): 29.94 inches Hg (1014.0 mb)
Winds: variable direction winds at 2 MPH (2 knots; 1.0 m/s)
Visibility: 6 or more miles (10+ km)
Ceiling: at least 12,000 feet AGL
Clouds: sky clear below 12,000 feet AGL
Weather: no significant weather observed at this time

METAR text: UTAA 191700Z 21004KT 9999 NSC 29/05 Q1014 R88/70D NOSIG
Conditions at: UTAA (ASHGABAT , TM) observed 1700 UTC 19 August 2019
Temperature: 29.0°C (84°F)
Dewpoint: 5.0°C (41°F) [RH = 22%]
Pressure (altimeter): 29.94 inches Hg (1014.0 mb)
Winds: from the SSW (210 degrees) at 5 MPH (4 knots; 2.1 m/s)
Visibility: 6 or more miles (10+ km)
Ceiling: at least 12,000 feet AGL
Clouds: sky clear below 12,000 feet AGL
Weather: no significant weather observed at this time

METAR text: UTAA 191600Z 18002KT 9999 NSC 29/07 Q1014 R88/70D NOSIG
Conditions at: UTAA (ASHGABAT , TM) observed 1600 UTC 19 August 2019
Temperature: 29.0°C (84°F)
Dewpoint: 7.0°C (45°F) [RH = 25%]
Pressure (altimeter): 29.94 inches Hg (1014.0 mb)
Winds: from the S (180 degrees) at 2 MPH (2 knots; 1.0 m/s)
Visibility: 6 or more miles (10+ km)
Ceiling: at least 12,000 feet AGL
Clouds: sky clear below 12,000 feet AGL
Weather: no significant weather observed at this time

METAR text: UTAA 191500Z 13006KT 9999 NSC 32/05 Q1014 R88/70D NOSIG
Conditions at: UTAA (ASHGABAT , TM) observed 1500 UTC 19 August 2019
Temperature: 32.0°C (90°F)
Dewpoint: 5.0°C (41°F) [RH = 18%]
Pressure (altimeter): 29.94 inches Hg (1014.0 mb)
Winds: from the SE (130 degrees) at 7 MPH (6 knots; 3.1 m/s)
Visibility: 6 or more miles (10+ km)
Ceiling: at least 12,000 feet AGL
Clouds: sky clear below 12,000 feet AGL
Weather: no significant weather observed at this time

METAR text: UTAA 191400Z 11008KT 9999 NSC 34/04 Q1013 R88/70D NOSIG
Conditions at: UTAA (ASHGABAT , TM) observed 1400 UTC 19 August 2019
Temperature: 34.0°C (93°F)
Dewpoint: 4.0°C (39°F) [RH = 15%]
Pressure (altimeter): 29.91 inches Hg (1013.0 mb)
Winds: from the ESE (110 degrees) at 9 MPH (8 knots; 4.1 m/s)
Visibility: 6 or more miles (10+ km)
Ceiling: at least 12,000 feet AGL
Clouds: sky clear below 12,000 feet AGL
Weather: no significant weather observed at this time

METAR text: UTAA 191300Z 11008KT 080V140 9999 NSC 36/05 Q1013 R88/70D NOSIG
Conditions at: UTAA (ASHGABAT , TM) observed 1300 UTC 19 August 2019
Temperature: 36.0°C (97°F)
Dewpoint: 5.0°C (41°F) [RH = 15%]
Pressure (altimeter): 29.91 inches Hg (1013.0 mb)
Winds: from the ESE (110 degrees) at 9 MPH (8 knots; 4.1 m/s)
Visibility: 6 or more miles (10+ km)
Ceiling: at least 12,000 feet AGL
Clouds: sky clear below 12,000 feet AGL
Weather: no significant weather observed at this time

METAR text: UTAA 191200Z 11012KT 9999 NSC 36/05 Q1013 R88/70D NOSIG
Conditions at: UTAA (ASHGABAT , TM) observed 1200 UTC 19 August 2019
Temperature: 36.0°C (97°F)
Dewpoint: 5.0°C (41°F) [RH = 15%]
Pressure (altimeter): 29.91 inches Hg (1013.0 mb)
Winds: from the ESE (110 degrees) at 14 MPH (12 knots; 6.2 m/s)
Visibility: 6 or more miles (10+ km)
Ceiling: at least 12,000 feet AGL
Clouds: sky clear below 12,000 feet AGL
Weather: no significant weather observed at this time

METAR text: UTAA 191100Z 09012KT 040V120 9999 NSC 36/04 Q1013 R88/70D NOSIG
Conditions at: UTAA (ASHGABAT , TM) observed 1100 UTC 19 August 2019
Temperature: 36.0°C (97°F)
Dewpoint: 4.0°C (39°F) [RH = 14%]
Pressure (altimeter): 29.91 inches Hg (1013.0 mb)
Winds: from the E (90 degrees) at 14 MPH (12 knots; 6.2 m/s)
Visibility: 6 or more miles (10+ km)
Ceiling: at least 12,000 feet AGL
Clouds: sky clear below 12,000 feet AGL
Weather: no significant weather observed at this time

METAR text: UTAA 191000Z 09010KT 050V130 9999 NSC 36/04 Q1013 R88/70D NOSIG
Conditions at: UTAA (ASHGABAT , TM) observed 1000 UTC 19 August 2019
Temperature: 36.0°C (97°F)
Dewpoint: 4.0°C (39°F) [RH = 14%]
Pressure (altimeter): 29.91 inches Hg (1013.0 mb)
Winds: from the E (90 degrees) at 12 MPH (10 knots; 5.1 m/s)
Visibility: 6 or more miles (10+ km)
Ceiling: at least 12,000 feet AGL
Clouds: sky clear below 12,000 feet AGL
Weather: no significant weather observed at this time

METAR text: UTAA 190900Z 08012KT 050V120 9999 NSC 35/04 Q1013 R88/70D NOSIG
Conditions at: UTAA (ASHGABAT , TM) observed 0900 UTC 19 August 2019
Temperature: 35.0°C (95°F)
Dewpoint: 4.0°C (39°F) [RH = 14%]
Pressure (altimeter): 29.91 inches Hg (1013.0 mb)
Winds: from the E (80 degrees) at 14 MPH (12 knots; 6.2 m/s)
Visibility: 6 or more miles (10+ km)
Ceiling: at least 12,000 feet AGL
Clouds: sky clear below 12,000 feet AGL
Weather: no significant weather observed at this time

Forecast for: UTAA (ASHGABAT , TM)
Text: TAF UTAA 201635Z 2017/2118 24014KT 6000 SCT100
Forecast period: 1700 UTC 20 August 2019 to 0100 UTC 21 August 2019
Forecast type: FROM: standard forecast or significant change
Winds: from the WSW (240 degrees) at 16 MPH (14 knots; 7.2 m/s)
Visibility: 4 miles (6 km)
Ceiling: at least 12,000 feet AGL
Clouds: scattered clouds at 10000 feet AGL
Weather: no significant weather forecast for this period
Text: TEMPO 2017/2101 18012KT 1500 HZ
Forecast period: 1700 UTC 20 August 2019 to 0100 UTC 21 August 2019
Forecast type: TEMPORARY: The following changes expected for less than half the time period
Winds: from the S (180 degrees) at 14 MPH (12 knots; 6.2 m/s)
Visibility: 0.93 miles (1.50 km)
Ceiling: unknown
Clouds: missing
Weather: HZ  (haze)
Text: BECMG 2101/2103 04016KT
Forecast period: 0100 to 1800 UTC 21 August 2019
Forecast type: BECOMING: Conditions expected to become as follows by 0300 UTC 21 August 2019
Winds: from the NE (40 degrees) at 18 MPH (16 knots; 8.2 m/s)
Visibility: 4 miles (6 km)
Ceiling: at least 12,000 feet AGL
Clouds: scattered clouds at 10000 feet AGL
Weather: no significant weather forecast for this period